Time;durP1;ratioP1;P1;durP2;ratioP2;P2;SDS_P1;SDS_P2;PMS_P1;PMS_P2;Temp;Humidity;BMP_temperature;BMP_pressure;BME280_temperature;BME280_humidity;BME280_pressure;Samples;Min_cycle;Max_cycle;Signal;HPM_P1;HPM_P2
2022/03/19 00:00:38;;;;;;;20.67;4.00;;;6.50;99.90;;;;;;5047881;28;20025;-47
2022/03/19 00:03:04;;;;;;;16.77;3.70;;;6.50;99.90;;;;;;5050017;28;20095;-50
2022/03/19 00:05:30;;;;;;;15.70;4.20;;;6.40;99.90;;;;;;5050342;28;20519;-51
2022/03/19 00:07:55;;;;;;;20.23;3.83;;;6.40;99.90;;;;;;5049207;28;20086;-47
2022/03/19 00:10:22;;;;;;;15.68;3.80;;;6.40;99.90;;;;;;5050353;28;20041;-48
2022/03/19 00:12:49;;;;;;;19.33;3.92;;;6.40;99.90;;;;;;5049428;28;20045;-48
2022/03/19 00:15:18;;;;;;;16.98;4.07;;;6.30;99.90;;;;;;5049954;28;20037;-48
2022/03/19 00:17:43;;;;;;;17.55;3.55;;;6.20;99.90;;;;;;5049774;28;20036;-48
2022/03/19 00:20:10;;;;;;;15.65;3.80;;;6.20;99.90;;;;;;5049444;28;20041;-50
2022/03/19 00:22:38;;;;;;;16.38;3.40;;;6.20;99.90;;;;;;5049634;28;20071;-49
2022/03/19 00:25:04;;;;;;;15.05;3.58;;;6.20;99.90;;;;;;5049883;28;20563;-46
2022/03/19 00:27:30;;;;;;;13.13;3.47;;;6.10;99.90;;;;;;5049866;28;20041;-45
2022/03/19 00:29:56;;;;;;;13.18;3.38;;;6.10;99.90;;;;;;5049618;28;20041;-47
2022/03/19 00:32:22;;;;;;;14.00;3.40;;;6.10;99.90;;;;;;5049384;28;20056;-45
2022/03/19 00:34:47;;;;;;;12.18;2.67;;;6.10;99.90;;;;;;5050127;28;20072;-45
2022/03/19 00:37:13;;;;;;;12.82;3.30;;;6.10;99.90;;;;;;5049549;28;20124;-50
2022/03/19 00:39:39;;;;;;;16.73;3.40;;;6.00;99.90;;;;;;5049927;28;20531;-46
2022/03/19 00:42:04;;;;;;;18.50;3.90;;;6.00;99.90;;;;;;5049597;28;20103;-49
2022/03/19 00:44:30;;;;;;;14.27;3.17;;;6.00;99.90;;;;;;5049815;28;20472;-50
2022/03/19 00:46:55;;;;;;;12.30;3.13;;;6.00;99.90;;;;;;5049093;28;20100;-47
2022/03/19 00:49:21;;;;;;;15.02;3.47;;;5.90;99.90;;;;;;5049894;28;20045;-47
2022/03/19 00:51:47;;;;;;;14.52;3.28;;;5.90;99.90;;;;;;5049867;28;20040;-46
2022/03/19 00:54:15;;;;;;;13.00;3.15;;;5.90;99.90;;;;;;5049791;28;20392;-52
2022/03/19 00:56:42;;;;;;;14.80;3.10;;;5.70;99.90;;;;;;5049402;28;20041;-47
2022/03/19 00:59:08;;;;;;;11.77;3.70;;;5.70;99.90;;;;;;5049674;28;20084;-47
2022/03/19 01:01:35;;;;;;;16.90;3.65;;;5.70;99.90;;;;;;5049624;28;20037;-46
2022/03/19 01:04:01;;;;;;;13.18;2.75;;;5.60;99.90;;;;;;5049806;28;20037;-51
2022/03/19 01:06:27;;;;;;;19.40;3.78;;;5.60;99.90;;;;;;5050249;28;20527;-51
2022/03/19 01:08:52;;;;;;;12.85;3.17;;;5.70;99.90;;;;;;5053177;28;20072;-44
2022/03/19 01:11:23;;;;;;;21.08;3.95;;;5.50;99.90;;;;;;5052727;28;20036;-47
2022/03/19 01:13:50;;;;;;;17.73;3.90;;;5.60;99.90;;;;;;5052969;28;20036;-49
2022/03/19 01:16:18;;;;;;;13.10;3.25;;;5.60;99.90;;;;;;5053029;28;20076;-47
2022/03/19 01:18:49;;;;;;;17.92;3.70;;;5.50;99.90;;;;;;5051399;28;20408;-47
2022/03/19 01:21:15;;;;;;;17.17;3.65;;;5.50;99.90;;;;;;5049797;28;20119;-48
2022/03/19 01:23:41;;;;;;;15.52;3.45;;;5.50;99.90;;;;;;5052990;28;20128;-48
2022/03/19 01:26:07;;;;;;;13.73;3.03;;;5.50;99.90;;;;;;5053067;28;20124;-48
2022/03/19 01:28:33;;;;;;;13.00;2.97;;;5.40;99.90;;;;;;5053153;28;20068;-47
2022/03/19 01:30:58;;;;;;;19.05;3.92;;;5.30;99.90;;;;;;5053151;28;20045;-51
2022/03/19 01:33:24;;;;;;;17.52;3.50;;;5.30;99.90;;;;;;5053109;28;20068;-49
2022/03/19 01:35:50;;;;;;;14.27;3.15;;;5.20;99.90;;;;;;5052786;28;20132;-46
2022/03/19 01:38:15;;;;;;;17.45;3.45;;;5.30;99.90;;;;;;5051424;28;20037;-47
2022/03/19 01:40:41;;;;;;;15.32;3.08;;;5.30;99.90;;;;;;5052681;28;20033;-45
2022/03/19 01:43:07;;;;;;;12.93;3.20;;;5.30;99.90;;;;;;5052401;28;20033;-46
2022/03/19 01:45:33;;;;;;;16.63;3.47;;;5.10;99.90;;;;;;5051228;28;20045;-48
2022/03/19 01:47:59;;;;;;;17.42;3.60;;;5.10;99.90;;;;;;5052789;28;20040;-49
2022/03/19 01:50:26;;;;;;;14.38;3.28;;;5.10;99.90;;;;;;5052483;28;20063;-47
2022/03/19 01:52:53;;;;;;;18.33;3.30;;;5.20;99.90;;;;;;5052716;28;20108;-47
2022/03/19 01:55:26;;;;;;;16.65;3.67;;;5.10;99.90;;;;;;5052651;28;20123;-51
2022/03/19 01:57:52;;;;;;;13.98;3.65;;;5.10;99.90;;;;;;5052620;28;20052;-47
2022/03/19 02:00:23;;;;;;;14.45;3.60;;;5.20;99.90;;;;;;5052667;28;20392;-47
2022/03/19 02:02:51;;;;;;;18.75;3.97;;;5.20;99.90;;;;;;5052651;28;20044;-48
2022/03/19 02:05:19;;;;;;;12.18;2.88;;;5.10;99.90;;;;;;5052259;28;20468;-47
2022/03/19 02:07:46;;;;;;;13.70;3.35;;;5.10;99.90;;;;;;5052332;28;20056;-49
2022/03/19 02:10:16;;;;;;;15.70;3.60;;;5.00;99.90;;;;;;5050342;28;20440;-51
2022/03/19 02:12:44;;;;;;;17.92;3.72;;;5.10;99.90;;;;;;5052117;28;20042;-48
2022/03/19 02:15:12;;;;;;;14.35;3.42;;;5.10;99.90;;;;;;5052209;28;20033;-48
2022/03/19 02:17:38;;;;;;;17.77;3.85;;;5.00;99.90;;;;;;5052094;28;20044;-51
2022/03/19 02:20:05;;;;;;;16.70;3.60;;;5.00;99.90;;;;;;5052016;28;20037;-49
2022/03/19 02:22:31;;;;;;;10.93;3.22;;;5.00;99.90;;;;;;5052210;28;20037;-47
2022/03/19 02:27:43;;;;;;;16.77;3.92;;;5.00;99.90;;;;;;5050854;28;20079;-49
2022/03/19 02:30:11;;;;;;;12.43;3.50;;;4.90;99.90;;;;;;5052186;28;20037;-51
2022/03/19 02:32:40;;;;;;;14.80;4.00;;;4.90;99.90;;;;;;5052249;28;20465;-51
2022/03/19 02:35:07;;;;;;;20.95;3.83;;;4.90;99.90;;;;;;5051674;28;20142;-50
2022/03/19 02:37:45;;;;;;;17.13;3.25;;;4.90;99.90;;;;;;5051886;28;20164;-46
2022/03/19 02:40:13;;;;;;;14.50;4.05;;;4.90;99.90;;;;;;5051704;28;20495;-48
2022/03/19 02:42:40;;;;;;;14.93;4.15;;;4.80;99.90;;;;;;5051420;28;20037;-45
2022/03/19 02:45:07;;;;;;;14.15;3.95;;;4.90;99.90;;;;;;5051809;28;21341;-48
2022/03/19 02:47:33;;;;;;;15.85;3.75;;;4.80;99.90;;;;;;5051319;28;20055;-45
2022/03/19 02:49:59;;;;;;;17.25;4.40;;;4.80;99.90;;;;;;5048483;28;20127;-48
2022/03/19 02:52:25;;;;;;;21.98;4.28;;;4.80;99.90;;;;;;5051431;28;20041;-47
2022/03/19 02:54:50;;;;;;;16.08;4.05;;;4.70;99.90;;;;;;5051242;28;20420;-47
2022/03/19 02:57:16;;;;;;;16.15;4.10;;;4.70;99.90;;;;;;5051554;28;20407;-54
2022/03/19 02:59:42;;;;;;;19.13;4.25;;;4.70;99.90;;;;;;5051303;28;20095;-49
2022/03/19 03:02:10;;;;;;;10.77;3.65;;;4.70;99.90;;;;;;5050004;28;20063;-48
2022/03/19 03:04:36;;;;;;;14.75;4.97;;;4.70;99.90;;;;;;5050030;28;20076;-50
2022/03/19 03:07:03;;;;;;;16.70;4.47;;;4.60;99.90;;;;;;5051164;28;20101;-47
2022/03/19 03:09:30;;;;;;;12.93;3.60;;;4.70;99.90;;;;;;5051350;28;20044;-48
2022/03/19 03:12:02;;;;;;;15.63;3.78;;;4.60;99.90;;;;;;5050582;28;20040;-45
2022/03/19 03:14:28;;;;;;;16.67;4.25;;;4.60;99.90;;;;;;5051022;28;20041;-47
2022/03/19 03:16:57;;;;;;;18.05;4.15;;;4.60;99.90;;;;;;5050856;28;20048;-47
2022/03/19 03:19:23;;;;;;;19.30;4.05;;;4.60;99.90;;;;;;5051118;28;20477;-46
2022/03/19 03:21:49;;;;;;;20.27;4.22;;;4.60;99.90;;;;;;5050888;28;20059;-45
2022/03/19 03:24:15;;;;;;;18.15;4.53;;;4.60;99.90;;;;;;5050960;28;20041;-44
2022/03/19 03:26:42;;;;;;;17.42;4.25;;;4.60;99.90;;;;;;5050942;28;20036;-46
2022/03/19 03:29:08;;;;;;;18.88;4.40;;;4.50;99.90;;;;;;5050309;28;20453;-44
2022/03/19 03:31:35;;;;;;;21.50;4.57;;;4.60;99.90;;;;;;5050618;28;20045;-48
2022/03/19 03:34:01;;;;;;;18.40;4.65;;;4.60;99.90;;;;;;5050082;28;20037;-49
2022/03/19 03:36:27;;;;;;;17.02;4.90;;;4.60;99.90;;;;;;5050406;28;20094;-48
2022/03/19 03:38:53;;;;;;;19.48;4.57;;;4.60;99.90;;;;;;5050546;28;20473;-45
2022/03/19 03:41:19;;;;;;;14.73;4.00;;;4.50;99.90;;;;;;5048948;28;20041;-47
2022/03/19 03:43:45;;;;;;;19.15;4.45;;;4.50;99.90;;;;;;5048644;28;20037;-46
2022/03/19 03:46:12;;;;;;;17.60;4.85;;;4.50;99.90;;;;;;5048650;28;20408;-47
2022/03/19 03:48:38;;;;;;;16.60;4.70;;;4.50;99.90;;;;;;5050089;28;20515;-47
2022/03/19 03:51:06;;;;;;;17.45;4.55;;;4.40;99.90;;;;;;5050308;28;20052;-47
2022/03/19 03:53:33;;;;;;;17.02;4.57;;;4.50;99.90;;;;;;5048046;28;20048;-49
2022/03/19 03:55:59;;;;;;;16.75;5.35;;;4.50;99.90;;;;;;5048985;28;20048;-49
2022/03/19 03:58:25;;;;;;;20.52;4.70;;;4.50;99.90;;;;;;5050304;28;20045;-49
2022/03/19 04:00:51;;;;;;;20.88;5.00;;;4.40;99.90;;;;;;5050134;28;20036;-49
2022/03/19 04:03:17;;;;;;;16.63;4.78;;;4.50;99.90;;;;;;5049686;28;20037;-46
2022/03/19 04:05:43;;;;;;;18.98;5.07;;;4.60;99.90;;;;;;5049716;28;20060;-47
2022/03/19 04:08:08;;;;;;;17.80;4.55;;;4.40;99.90;;;;;;5050071;28;20122;-47
2022/03/19 04:10:34;;;;;;;16.23;4.88;;;4.40;99.90;;;;;;5050014;28;20064;-49
2022/03/19 04:13:00;;;;;;;17.23;5.13;;;4.30;99.90;;;;;;5049775;28;20453;-49
2022/03/19 04:15:26;;;;;;;16.80;5.05;;;4.30;99.90;;;;;;5050013;28;20495;-49
2022/03/19 04:17:52;;;;;;;20.42;4.85;;;4.40;99.90;;;;;;5050181;28;20033;-46
2022/03/19 04:20:18;;;;;;;22.42;5.15;;;4.40;99.90;;;;;;5050329;28;20158;-46
2022/03/19 04:22:45;;;;;;;19.02;4.75;;;4.30;99.90;;;;;;5049741;28;20068;-47
2022/03/19 04:25:16;;;;;;;20.02;5.07;;;4.20;99.90;;;;;;5049779;28;20037;-44
2022/03/19 04:27:44;;;;;;;16.95;5.45;;;4.20;99.90;;;;;;5050267;28;20477;-46
2022/03/19 04:30:14;;;;;;;17.23;4.90;;;4.20;99.90;;;;;;5050075;28;20110;-46
2022/03/19 04:32:44;;;;;;;19.98;5.47;;;4.20;99.90;;;;;;5049984;28;20465;-45
2022/03/19 04:37:59;;;;;;;20.13;5.35;;;4.20;99.90;;;;;;5050113;28;20191;-47
2022/03/19 04:40:24;;;;;;;17.45;5.15;;;4.20;99.90;;;;;;5048922;28;20041;-47
2022/03/19 04:42:50;;;;;;;18.48;4.82;;;4.10;99.90;;;;;;5053454;28;20037;-46
2022/03/19 04:45:16;;;;;;;21.88;5.32;;;4.10;99.90;;;;;;5053664;28;20041;-48
2022/03/19 04:47:42;;;;;;;16.33;5.47;;;4.10;99.90;;;;;;5054009;28;20074;-48
2022/03/19 04:50:08;;;;;;;20.45;5.20;;;4.20;99.90;;;;;;5052231;28;20103;-47
2022/03/19 04:52:35;;;;;;;17.70;4.93;;;4.00;99.90;;;;;;5053631;28;20115;-50
2022/03/19 04:55:01;;;;;;;21.67;5.80;;;4.10;99.90;;;;;;5053722;28;20044;-47
2022/03/19 04:57:30;;;;;;;20.75;5.68;;;4.10;99.90;;;;;;5053357;28;20045;-50
2022/03/19 04:59:58;;;;;;;16.48;5.28;;;4.00;99.90;;;;;;5053072;28;20037;-47
2022/03/19 05:02:24;;;;;;;18.92;5.75;;;5.10;99.90;;;;;;5053315;28;20041;-47
2022/03/19 05:04:51;;;;;;;15.65;5.15;;;3.90;99.90;;;;;;5053585;28;20448;-45
2022/03/19 05:07:19;;;;;;;17.63;5.32;;;4.10;99.90;;;;;;5053552;28;20133;-45
2022/03/19 05:12:35;;;;;;;18.33;5.32;;;4.10;99.90;;;;;;5052534;28;20099;-44
2022/03/19 05:15:00;;;;;;;16.52;5.68;;;4.10;99.90;;;;;;5050464;28;20040;-45
2022/03/19 05:17:26;;;;;;;14.00;5.18;;;3.90;99.90;;;;;;5050852;28;20051;-51
2022/03/19 05:19:52;;;;;;;19.40;6.10;;;4.00;99.90;;;;;;5052125;28;20083;-51
2022/03/19 05:22:19;;;;;;;19.90;5.80;;;3.90;99.90;;;;;;5053218;28;20033;-46
2022/03/19 05:24:45;;;;;;;16.00;4.78;;;3.90;99.90;;;;;;5051278;28;20588;-44
2022/03/19 05:27:12;;;;;;;13.50;5.22;;;4.00;99.90;;;;;;5052744;28;20044;-45
2022/03/19 05:29:38;;;;;;;17.48;5.22;;;4.00;99.90;;;;;;5052643;28;20025;-45
2022/03/19 05:32:05;;;;;;;18.67;5.00;;;3.90;99.90;;;;;;5052989;28;20090;-47
2022/03/19 05:34:31;;;;;;;18.73;5.63;;;3.90;99.90;;;;;;5053247;28;20040;-48
2022/03/19 05:37:00;;;;;;;17.35;5.30;;;3.90;99.90;;;;;;5052902;28;20040;-45
2022/03/19 05:39:31;;;;;;;13.45;4.75;;;4.00;99.90;;;;;;5051140;28;20056;-45
2022/03/19 05:41:57;;;;;;;19.63;5.00;;;3.90;99.90;;;;;;5052545;28;20068;-49
2022/03/19 05:44:24;;;;;;;14.57;4.50;;;3.90;99.90;;;;;;5051514;28;20057;-53
2022/03/19 05:46:50;;;;;;;15.48;4.53;;;4.00;99.90;;;;;;5052055;28;20505;-48
2022/03/19 05:49:16;;;;;;;18.63;5.03;;;3.90;99.90;;;;;;5052774;28;20052;-49
2022/03/19 05:51:42;;;;;;;15.10;5.18;;;3.90;99.90;;;;;;5052391;28;20063;-48
2022/03/19 05:54:09;;;;;;;13.93;4.30;;;3.90;99.90;;;;;;5052242;28;20394;-48
2022/03/19 05:56:36;;;;;;;19.25;4.90;;;4.00;99.90;;;;;;5052082;28;20052;-49
2022/03/19 05:59:03;;;;;;;18.65;4.85;;;4.00;99.90;;;;;;5052649;28;20040;-46
2022/03/19 06:01:29;;;;;;;20.52;5.22;;;4.00;99.90;;;;;;5050867;28;20049;-47
2022/03/19 06:03:59;;;;;;;17.33;4.32;;;4.00;99.90;;;;;;5052203;28;20072;-45
2022/03/19 06:06:26;;;;;;;18.17;4.35;;;3.90;99.90;;;;;;5052592;28;20086;-48
2022/03/19 06:08:52;;;;;;;21.05;4.57;;;4.00;99.90;;;;;;5051819;28;20037;-45
2022/03/19 06:11:18;;;;;;;17.67;4.68;;;3.90;99.90;;;;;;5051881;28;20037;-49
2022/03/19 06:13:44;;;;;;;17.70;4.43;;;3.90;99.90;;;;;;5050427;28;20037;-45
2022/03/19 06:16:10;;;;;;;12.77;4.28;;;3.90;99.90;;;;;;5052027;28;20335;-46
2022/03/19 06:18:36;;;;;;;16.77;4.93;;;3.90;99.90;;;;;;5050469;28;20120;-46
2022/03/19 06:21:03;;;;;;;15.90;4.80;;;4.00;99.90;;;;;;5052291;28;20543;-47
2022/03/19 06:23:29;;;;;;;12.55;4.15;;;4.00;99.90;;;;;;5052183;28;20075;-48
2022/03/19 06:25:55;;;;;;;16.55;4.68;;;4.10;99.90;;;;;;5052085;28;20071;-46
2022/03/19 06:28:20;;;;;;;18.58;4.57;;;4.10;99.90;;;;;;5051940;28;20033;-48
2022/03/19 06:30:46;;;;;;;13.43;4.22;;;4.00;99.90;;;;;;5052043;28;20388;-47
2022/03/19 06:33:12;;;;;;;17.88;4.75;;;4.10;99.90;;;;;;5051993;28;20037;-50
2022/03/19 06:38:26;;;;;;;19.70;5.15;;;4.20;99.90;;;;;;5050424;28;20201;-48
2022/03/19 06:40:52;;;;;;;15.55;4.47;;;4.10;99.90;;;;;;5049727;28;20163;-46
2022/03/19 06:43:18;;;;;;;14.95;3.95;;;4.20;99.90;;;;;;5051396;28;20115;-49
2022/03/19 06:45:43;;;;;;;11.85;4.28;;;4.20;99.90;;;;;;5050820;28;20523;-49
2022/03/19 06:48:09;;;;;;;19.42;4.88;;;4.30;99.90;;;;;;5051776;28;20066;-47
2022/03/19 06:50:35;;;;;;;18.75;5.18;;;4.30;99.90;;;;;;5051441;28;20052;-48
2022/03/19 06:53:05;;;;;;;15.60;5.00;;;4.30;99.90;;;;;;5051489;28;20036;-46
2022/03/19 06:55:32;;;;;;;15.95;4.80;;;4.30;99.90;;;;;;5051168;28;20045;-50
2022/03/19 06:57:58;;;;;;;13.40;3.80;;;4.50;99.90;;;;;;5051200;28;20036;-51
2022/03/19 07:00:24;;;;;;;13.50;3.63;;;4.50;99.90;;;;;;5066828;28;20041;-48
2022/03/19 07:02:52;;;;;;;14.95;4.18;;;4.50;99.90;;;;;;5051381;28;20041;-49
2022/03/19 07:05:22;;;;;;;19.48;4.50;;;4.60;99.90;;;;;;5050020;28;20112;-48
2022/03/19 07:07:49;;;;;;;14.65;3.85;;;4.70;99.90;;;;;;5049138;28;20037;-48
2022/03/19 07:10:15;;;;;;;12.70;3.78;;;4.80;99.90;;;;;;5050204;28;20124;-48
2022/03/19 07:12:49;;;;;;;16.17;4.65;;;4.80;99.90;;;;;;5050631;28;20032;-47
2022/03/19 07:15:16;;;;;;;18.10;4.55;;;4.90;99.90;;;;;;5049530;28;20043;-49
2022/03/19 07:17:43;;;;;;;19.40;4.60;;;5.10;99.90;;;;;;5050076;28;20388;-48
2022/03/19 07:20:11;;;;;;;16.23;4.18;;;5.00;99.90;;;;;;5051006;28;20427;-51
2022/03/19 07:23:06;;;;;;;16.10;4.95;;;5.20;99.90;;;;;;5050961;28;20036;-51
2022/03/19 07:25:36;;;;;;;10.68;3.78;;;5.30;99.90;;;;;;5050470;28;20056;-48
2022/03/19 07:28:05;;;;;;;16.02;3.80;;;5.30;99.90;;;;;;5051050;28;20370;-50
2022/03/19 07:30:32;;;;;;;17.42;4.25;;;5.40;99.90;;;;;;5049293;28;20068;-47
2022/03/19 07:32:58;;;;;;;17.35;4.60;;;5.50;99.90;;;;;;5050947;28;20107;-51
2022/03/19 07:35:24;;;;;;;14.98;4.00;;;5.60;99.90;;;;;;5050408;28;20043;-49
2022/03/19 07:37:49;;;;;;;19.23;5.15;;;5.60;99.90;;;;;;5049582;28;20037;-51
2022/03/19 07:43:06;;;;;;;18.35;4.70;;;5.70;99.90;;;;;;5038137;28;20074;-50
2022/03/19 07:45:31;;;;;;;17.65;3.97;;;5.80;99.90;;;;;;5050466;28;20133;-53
2022/03/19 07:47:57;;;;;;;14.05;4.13;;;6.00;99.90;;;;;;5050595;28;20116;-50
2022/03/19 07:50:23;;;;;;;15.50;3.70;;;6.10;99.90;;;;;;5047501;28;20039;-49
2022/03/19 07:52:49;;;;;;;17.88;5.15;;;6.20;99.90;;;;;;5044454;28;20410;-50
2022/03/19 07:55:15;;;;;;;13.73;3.97;;;6.20;99.90;;;;;;5042768;28;20055;-46
2022/03/19 07:57:40;;;;;;;14.68;4.25;;;6.20;99.90;;;;;;5042624;28;20067;-48
2022/03/19 08:00:07;;;;;;;17.85;5.00;;;6.40;99.90;;;;;;5040211;28;20065;-48
2022/03/19 08:02:32;;;;;;;17.67;3.92;;;6.50;99.90;;;;;;5039044;28;20033;-49
2022/03/19 08:05:00;;;;;;;16.20;3.90;;;6.60;99.90;;;;;;5036488;28;20033;-45
2022/03/19 08:07:25;;;;;;;10.07;3.90;;;6.70;99.90;;;;;;5039603;28;20250;-48
2022/03/19 08:09:51;;;;;;;13.32;4.15;;;6.70;99.90;;;;;;5038902;28;20536;-49
2022/03/19 08:12:17;;;;;;;19.42;3.85;;;6.80;99.90;;;;;;5037827;28;20546;-47
2022/03/19 08:14:43;;;;;;;12.48;4.43;;;6.90;99.90;;;;;;5037938;28;20033;-47
2022/03/19 08:17:10;;;;;;;14.88;4.20;;;7.00;99.90;;;;;;5036991;28;20477;-49
2022/03/19 08:19:36;;;;;;;13.02;3.78;;;7.10;99.90;;;;;;5038715;28;20442;-50
2022/03/19 08:22:03;;;;;;;14.68;3.80;;;7.30;99.90;;;;;;5039653;28;20045;-47
2022/03/19 08:24:28;;;;;;;14.27;3.90;;;7.30;99.90;;;;;;5041698;28;20047;-45
2022/03/19 08:26:54;;;;;;;11.48;3.65;;;7.30;99.90;;;;;;5039993;28;20033;-48
2022/03/19 08:29:23;;;;;;;12.38;3.40;;;7.40;99.90;;;;;;5039830;28;20097;-47
2022/03/19 08:31:50;;;;;;;13.38;3.35;;;7.40;99.90;;;;;;5038708;28;20032;-49
2022/03/19 08:34:16;;;;;;;9.82;3.17;;;7.50;99.90;;;;;;5042001;28;20460;-46
2022/03/19 08:36:42;;;;;;;11.13;3.33;;;8.20;99.90;;;;;;5041498;28;20091;-50
2022/03/19 08:41:52;;;;;;;18.10;3.45;;;7.80;99.90;;;;;;5040140;28;20048;-49
2022/03/19 08:44:18;;;;;;;14.38;3.50;;;7.80;99.90;;;;;;5041286;28;20033;-51
2022/03/19 08:46:43;;;;;;;14.07;3.28;;;8.00;99.90;;;;;;5041019;28;20052;-49
2022/03/19 08:49:09;;;;;;;11.48;3.60;;;8.10;99.90;;;;;;5040075;28;20443;-50
2022/03/19 08:51:41;;;;;;;13.40;3.40;;;7.90;99.90;;;;;;5040263;28;20090;-51
2022/03/19 08:54:15;;;;;;;19.15;5.05;;;8.20;99.90;;;;;;5041527;28;20040;-50
2022/03/19 08:56:42;;;;;;;19.08;5.10;;;8.30;99.90;;;;;;5041743;28;20044;-47
2022/03/19 08:59:08;;;;;;;11.60;3.63;;;8.40;99.90;;;;;;5040149;28;20040;-49
2022/03/19 09:01:33;;;;;;;17.95;4.25;;;8.50;99.90;;;;;;5041196;28;20041;-46
2022/03/19 09:04:00;;;;;;;18.48;4.40;;;8.50;99.90;;;;;;5040972;28;20102;-49
2022/03/19 09:06:26;;;;;;;25.83;8.02;;;8.70;99.90;;;;;;5040040;28;20447;-48
2022/03/19 09:08:51;;;;;;;13.45;4.50;;;8.80;99.90;;;;;;5039830;28;20523;-48
2022/03/19 09:11:19;;;;;;;14.07;4.50;;;8.90;99.90;;;;;;5039949;28;20028;-49
2022/03/19 09:13:50;;;;;;;12.05;3.85;;;9.00;99.90;;;;;;5038506;28;20033;-49
2022/03/19 09:16:18;;;;;;;13.85;3.25;;;9.00;99.90;;;;;;5039772;28;20183;-48
2022/03/19 09:18:43;;;;;;;12.85;3.40;;;9.00;99.90;;;;;;5038830;28;20033;-47
2022/03/19 09:21:10;;;;;;;11.75;3.90;;;9.10;99.90;;;;;;5034295;28;20043;-45
2022/03/19 09:23:35;;;;;;;18.75;4.43;;;9.30;99.90;;;;;;5036382;28;20037;-46
2022/03/19 09:26:01;;;;;;;29.42;10.43;;;9.40;99.90;;;;;;5039027;28;20037;-45
2022/03/19 09:28:27;;;;;;;23.85;7.00;;;9.40;99.90;;;;;;5040543;28;20128;-48
2022/03/19 09:30:53;;;;;;;14.93;4.10;;;9.60;99.90;;;;;;5040841;28;20059;-47
2022/03/19 09:33:19;;;;;;;15.15;4.30;;;9.60;99.90;;;;;;5039448;28;20040;-45
2022/03/19 09:35:45;;;;;;;13.60;3.60;;;9.80;99.90;;;;;;5039229;28;20033;-48
2022/03/19 09:38:12;;;;;;;16.30;3.47;;;9.90;99.90;;;;;;5041284;28;20146;-49
2022/03/19 09:40:38;;;;;;;16.23;6.05;;;10.00;99.90;;;;;;5042405;28;20273;-49
2022/03/19 09:43:04;;;;;;;17.17;6.13;;;9.90;99.90;;;;;;5041371;28;20040;-47
2022/03/19 09:45:30;;;;;;;12.98;3.88;;;10.00;99.90;;;;;;5038851;28;20475;-49
2022/03/19 09:47:57;;;;;;;10.75;3.90;;;10.20;99.90;;;;;;5040270;28;20138;-46
2022/03/19 09:50:23;;;;;;;11.70;3.97;;;10.30;99.90;;;;;;5041994;28;20033;-52
2022/03/19 09:52:53;;;;;;;11.48;2.85;;;10.40;99.90;;;;;;5043223;28;20129;-48
2022/03/19 09:55:20;;;;;;;13.20;3.20;;;10.40;99.90;;;;;;5042295;28;20040;-46
2022/03/19 09:57:46;;;;;;;14.40;2.97;;;10.40;99.90;;;;;;5042548;28;20041;-46
2022/03/19 10:00:13;;;;;;;11.82;3.05;;;10.40;99.90;;;;;;5042361;28;20033;-47
2022/03/19 10:02:56;;;;;;;13.52;3.10;;;10.50;99.90;;;;;;5038696;28;20037;-49
2022/03/19 10:10:59;;;;;;;14.38;2.85;;;10.40;99.90;;;;;;5041488;28;20489;-48
2022/03/19 10:13:26;;;;;;;12.57;2.40;;;10.60;99.90;;;;;;5039746;28;20139;-46
2022/03/19 10:15:53;;;;;;;8.80;2.60;;;10.60;99.90;;;;;;5038876;28;20045;-48
2022/03/19 10:18:25;;;;;;;10.50;2.72;;;10.80;99.90;;;;;;5042182;28;20036;-47
2022/03/19 10:20:51;;;;;;;10.60;2.65;;;11.00;99.60;;;;;;5034005;28;20055;-50
2022/03/19 10:23:28;;;;;;;12.70;3.00;;;10.90;98.90;;;;;;5043679;28;20045;-50
2022/03/19 10:25:54;;;;;;;8.50;2.75;;;11.00;98.90;;;;;;5046398;28;20366;-49
2022/03/19 10:28:28;;;;;;;10.80;2.90;;;11.10;99.10;;;;;;5049388;28;20043;-50
2022/03/19 10:30:54;;;;;;;10.82;2.70;;;11.00;99.30;;;;;;5050798;28;20076;-48
2022/03/19 10:33:25;;;;;;;9.38;2.47;;;11.10;98.70;;;;;;5045015;28;20076;-51
2022/03/19 10:35:50;;;;;;;7.80;2.35;;;11.20;98.20;;;;;;5038203;28;20045;-52
2022/03/19 10:38:19;;;;;;;10.55;2.50;;;11.10;97.00;;;;;;5053015;28;20038;-47
2022/03/19 10:40:47;;;;;;;9.50;2.33;;;11.20;97.40;;;;;;5065660;28;20176;-49
2022/03/19 10:43:16;;;;;;;11.05;2.38;;;11.40;97.40;;;;;;5044252;28;20436;-47
2022/03/19 10:45:50;;;;;;;10.55;2.50;;;11.30;96.60;;;;;;5042236;28;20045;-51
2022/03/19 10:48:21;;;;;;;9.20;2.40;;;11.40;97.90;;;;;;5033560;28;20056;-48
2022/03/19 10:50:47;;;;;;;11.32;2.63;;;11.50;98.10;;;;;;5033073;28;20060;-52
2022/03/19 10:53:13;;;;;;;8.10;2.60;;;11.50;98.60;;;;;;5032574;28;20041;-51
2022/03/19 10:55:39;;;;;;;10.82;2.30;;;11.90;98.20;;;;;;5033130;28;20064;-49
2022/03/19 10:58:05;;;;;;;10.50;2.17;;;12.00;95.90;;;;;;5029356;28;20072;-50
2022/03/19 11:00:34;;;;;;;10.38;2.50;;;11.90;94.00;;;;;;5028803;28;20049;-51
2022/03/19 11:03:06;;;;;;;12.07;2.47;;;12.00;95.50;;;;;;5030378;28;20037;-51
2022/03/19 11:05:34;;;;;;;9.75;2.33;;;12.30;94.60;;;;;;5030747;28;20517;-54
2022/03/19 11:08:02;;;;;;;10.23;2.45;;;12.30;95.30;;;;;;5028605;28;20037;-48
2022/03/19 11:10:29;;;;;;;7.82;2.08;;;12.60;96.10;;;;;;5029543;28;20037;-52
2022/03/19 11:12:58;;;;;;;7.18;2.08;;;12.50;92.30;;;;;;5028994;28;20030;-48
2022/03/19 11:15:28;;;;;;;6.90;1.90;;;12.70;92.50;;;;;;5027471;28;20045;-49
2022/03/19 11:17:56;;;;;;;6.40;1.80;;;12.70;88.20;;;;;;5030822;28;20413;-50
2022/03/19 11:20:22;;;;;;;10.23;1.92;;;12.80;91.70;;;;;;5030204;28;20500;-49
2022/03/19 11:22:54;;;;;;;9.05;2.00;;;12.80;91.20;;;;;;5030902;28;20139;-50
2022/03/19 11:25:32;;;;;;;7.30;1.70;;;12.90;85.90;;;;;;5030878;28;23774;-50
2022/03/19 11:28:06;;;;;;;6.38;1.77;;;13.10;86.20;;;;;;5024896;28;20492;-52
2022/03/19 11:30:42;;;;;;;6.43;1.23;;;13.20;80.70;;;;;;5028021;28;20818;-50
2022/03/19 11:33:08;;;;;;;8.07;1.85;;;13.40;72.90;;;;;;5031564;28;20047;-51
2022/03/19 11:35:39;;;;;;;7.15;1.95;;;13.30;75.30;;;;;;5027594;28;20037;-51
2022/03/19 11:38:11;;;;;;;5.47;1.60;;;13.40;69.80;;;;;;5030376;28;20045;-50
2022/03/19 11:40:43;;;;;;;7.60;1.55;;;13.70;72.60;;;;;;5031946;28;20407;-51
2022/03/19 11:43:10;;;;;;;6.97;1.25;;;13.70;73.90;;;;;;5029924;28;20412;-51
2022/03/19 11:45:57;;;;;;;4.28;1.25;;;14.00;68.30;;;;;;5025251;28;20068;-51
2022/03/19 11:48:35;;;;;;;7.78;1.40;;;14.20;64.10;;;;;;5028723;28;20084;-49
2022/03/19 11:51:19;;;;;;;4.32;1.30;;;14.50;67.10;;;;;;5032479;28;20485;-51
2022/03/19 11:54:19;;;;;;;6.28;1.40;;;14.40;65.90;;;;;;5029073;28;20069;-48
2022/03/19 11:57:02;;;;;;;8.35;1.98;;;14.60;66.40;;;;;;5028708;28;20080;-51
2022/03/19 11:59:28;;;;;;;9.05;1.80;;;14.80;65.60;;;;;;5031605;28;20531;-47
2022/03/19 12:02:00;;;;;;;6.78;1.63;;;15.00;68.70;;;;;;5028453;28;20037;-50
2022/03/19 12:04:47;;;;;;;8.25;1.33;;;15.00;63.40;;;;;;5030725;28;20496;-48
2022/03/19 12:07:39;;;;;;;6.63;1.40;;;15.10;60.50;;;;;;5029986;28;20128;-48
2022/03/19 12:10:16;;;;;;;5.65;1.35;;;14.70;56.60;;;;;;5030831;28;20033;-47
2022/03/19 12:12:44;;;;;;;8.38;1.50;;;15.20;56.30;;;;;;5030605;28;20049;-49
2022/03/19 12:15:31;;;;;;;4.47;1.33;;;15.50;56.30;;;;;;5029538;28;20045;-49
2022/03/19 12:18:29;;;;;;;5.65;1.25;;;15.80;55.80;;;;;;5029893;28;20076;-48
2022/03/19 12:21:04;;;;;;;5.97;1.33;;;15.50;54.60;;;;;;5028618;28;20497;-50
2022/03/19 12:24:06;;;;;;;5.82;1.30;;;15.50;55.00;;;;;;5027960;28;20041;-46
2022/03/19 12:26:41;;;;;;;3.90;1.02;;;15.70;55.20;;;;;;5054015;28;20090;-50
2022/03/19 12:29:09;;;;;;;7.78;1.73;;;15.70;53.70;;;;;;5023612;28;20076;-52
2022/03/19 12:31:42;;;;;;;6.15;1.75;;;15.50;53.10;;;;;;5026267;28;20374;-53
2022/03/19 12:34:19;;;;;;;6.30;1.30;;;15.90;54.50;;;;;;5052881;28;20098;-49
2022/03/19 12:36:46;;;;;;;10.60;1.80;;;16.00;53.40;;;;;;5028191;28;20500;-51
2022/03/19 12:39:12;;;;;;;6.47;1.50;;;16.00;54.40;;;;;;5027231;28;20431;-55
2022/03/19 12:41:39;;;;;;;8.90;1.50;;;16.10;53.50;;;;;;5025358;28;21228;-48
2022/03/19 12:44:21;;;;;;;6.18;1.60;;;16.20;55.20;;;;;;5024866;28;20118;-52
2022/03/19 12:46:59;;;;;;;5.38;1.38;;;16.40;55.40;;;;;;5026193;28;20138;-54
2022/03/19 12:49:27;;;;;;;6.93;1.35;;;16.50;54.30;;;;;;5027347;28;20641;-52
2022/03/19 12:51:53;;;;;;;3.70;0.93;;;16.50;52.10;;;;;;5029069;28;20416;-49
2022/03/19 12:54:24;;;;;;;6.00;1.10;;;16.60;49.60;;;;;;5029356;28;20045;-48
2022/03/19 12:56:51;;;;;;;5.47;1.10;;;16.60;46.80;;;;;;5028370;28;20556;-48
2022/03/19 12:59:23;;;;;;;6.15;1.52;;;16.80;49.40;;;;;;5030886;28;20044;-48
2022/03/19 13:01:49;;;;;;;5.60;1.33;;;16.90;50.10;;;;;;5029087;28;20095;-51
2022/03/19 13:04:29;;;;;;;4.95;1.23;;;17.20;49.90;;;;;;5040289;28;20118;-48
2022/03/19 13:06:57;;;;;;;4.47;1.33;;;17.20;50.00;;;;;;5037576;28;20500;-55
2022/03/19 13:09:33;;;;;;;3.70;1.10;;;16.80;48.50;;;;;;5050621;28;20037;-46
2022/03/19 13:12:02;;;;;;;4.90;1.75;;;16.90;49.00;;;;;;5051579;28;20045;-49